createdAt,value
2019-01-14T00:00:04.718Z,5.80
2019-01-14T00:05:01.633Z,7.43
2019-01-14T00:09:58.578Z,6.47
2019-01-14T00:14:55.499Z,6.20
2019-01-14T00:19:52.449Z,6.83
2019-01-14T00:24:49.402Z,7.20
2019-01-14T00:29:46.343Z,8.80
2019-01-14T00:34:43.267Z,9.30
2019-01-14T00:39:40.222Z,7.20
2019-01-14T00:44:37.128Z,7.00
2019-01-14T00:49:35.314Z,7.73
2019-01-14T00:54:32.252Z,6.00
2019-01-14T00:59:29.209Z,6.27
2019-01-14T01:04:26.112Z,6.30
2019-01-14T01:09:23.082Z,6.43
2019-01-14T01:14:20.018Z,5.60
2019-01-14T01:19:16.972Z,6.53
2019-01-14T01:24:13.876Z,6.30
2019-01-14T01:29:10.821Z,6.27
2019-01-14T01:34:07.733Z,6.97
2019-01-14T01:39:06.364Z,6.47
2019-01-14T01:44:03.488Z,6.50
2019-01-14T01:49:00.843Z,6.77
2019-01-14T01:53:59.106Z,7.20
2019-01-14T01:58:56.062Z,6.33
2019-01-14T02:03:52.970Z,6.43
2019-01-14T02:08:49.935Z,5.67
2019-01-14T02:13:47.447Z,5.57
2019-01-14T02:18:44.390Z,5.10
2019-01-14T02:23:41.413Z,5.73
2019-01-14T02:28:38.359Z,6.00
2019-01-14T02:33:35.370Z,5.63
2019-01-14T02:38:32.320Z,5.50
2019-01-14T02:43:29.240Z,5.63
2019-01-14T02:48:26.363Z,5.23
2019-01-14T02:53:23.281Z,6.03
2019-01-14T02:58:21.487Z,5.50
2019-01-14T03:03:18.413Z,5.53
2019-01-14T03:08:15.360Z,5.30
2019-01-14T03:13:12.340Z,5.37
2019-01-14T03:18:09.293Z,6.13
2019-01-14T03:23:06.191Z,5.60
2019-01-14T03:28:03.169Z,5.73
2019-01-14T03:33:00.072Z,5.87
2019-01-14T03:37:57.013Z,5.70
2019-01-14T03:42:53.931Z,5.57
2019-01-14T03:47:50.893Z,6.13
2019-01-14T03:52:47.813Z,6.37
2019-01-14T03:57:44.746Z,5.67
2019-01-14T04:02:42.294Z,5.97
2019-01-14T04:07:39.256Z,6.00
2019-01-14T04:12:36.151Z,5.63
2019-01-14T04:17:34.991Z,7.33
2019-01-14T04:22:33.815Z,5.60
2019-01-14T04:27:30.757Z,5.60
2019-01-14T04:32:27.759Z,5.67
2019-01-14T04:37:24.709Z,5.50
2019-01-14T04:42:21.615Z,5.80
2019-01-14T04:47:18.575Z,5.80
2019-01-14T04:52:15.482Z,5.80
2019-01-14T04:57:12.433Z,5.63
2019-01-14T05:02:09.343Z,5.50
2019-01-14T05:07:06.329Z,5.40
2019-01-14T05:12:03.231Z,5.50
2019-01-14T05:17:00.197Z,6.13
2019-01-14T05:21:57.097Z,5.93
2019-01-14T05:26:54.062Z,5.70
2019-01-14T05:31:50.971Z,5.47
2019-01-14T05:36:47.932Z,5.60
2019-01-14T05:41:44.878Z,5.50
2019-01-14T05:46:42.150Z,5.90
2019-01-14T05:51:39.058Z,5.77
2019-01-14T05:56:36.013Z,5.87
2019-01-14T06:01:32.912Z,5.93
2019-01-14T06:06:29.867Z,5.50
2019-01-14T06:11:27.649Z,5.50
2019-01-14T06:16:24.593Z,5.87
2019-01-14T06:21:21.498Z,5.40
2019-01-14T06:26:18.569Z,5.60
2019-01-14T06:31:15.485Z,6.10
2019-01-14T06:36:12.450Z,6.07
2019-01-14T06:41:09.363Z,5.00
2019-01-14T06:46:06.325Z,5.73
2019-01-14T06:51:03.430Z,5.00
2019-01-14T06:56:00.366Z,5.60
2019-01-14T07:01:00.077Z,5.60
2019-01-14T07:05:57.025Z,5.83
2019-01-14T07:10:54.041Z,5.10
2019-01-14T07:15:51.962Z,5.47
2019-01-14T07:20:48.870Z,5.60
2019-01-14T07:25:45.932Z,5.17
2019-01-14T07:30:42.855Z,5.00
2019-01-14T07:35:39.896Z,5.47
2019-01-14T07:40:37.122Z,5.00
2019-01-14T07:45:34.061Z,5.10
2019-01-14T07:50:30.984Z,5.27
2019-01-14T07:55:27.948Z,4.87
2019-01-14T08:00:24.842Z,5.27
2019-01-14T08:05:21.799Z,5.80
2019-01-14T08:10:18.723Z,5.00
2019-01-14T08:15:18.818Z,5.03
2019-01-14T08:20:15.886Z,4.90
2019-01-14T08:25:14.144Z,4.77
2019-01-14T08:30:17.504Z,4.23
2019-01-14T08:35:14.857Z,5.27
2019-01-14T08:40:14.494Z,4.70
2019-01-14T08:45:12.819Z,4.30
2019-01-14T08:50:16.917Z,4.67
2019-01-14T08:55:13.912Z,4.63
2019-01-14T09:00:17.413Z,5.10
2019-01-14T09:05:14.871Z,4.50
2019-01-14T09:10:16.812Z,4.70
2019-01-14T09:15:16.622Z,5.00
2019-01-14T09:20:20.136Z,4.67
2019-01-14T09:25:17.147Z,5.17
2019-01-14T09:30:19.755Z,5.33
2019-01-14T09:35:16.651Z,5.13
2019-01-14T09:40:20.352Z,5.73
2019-01-14T09:45:17.240Z,5.20
2019-01-14T09:50:15.130Z,4.90
2019-01-14T09:55:14.906Z,4.97
2019-01-14T10:00:12.161Z,5.43
2019-01-14T10:05:12.327Z,5.90
2019-01-14T10:10:12.785Z,5.40
2019-01-14T10:15:13.625Z,6.10
2019-01-14T10:20:11.669Z,5.73
2019-01-14T10:25:08.726Z,5.83
2019-01-14T10:30:18.221Z,4.93
2019-01-14T10:35:15.120Z,5.73
2019-01-14T10:40:15.183Z,5.83
2019-01-14T10:45:21.446Z,6.20
2019-01-14T10:50:19.064Z,6.23
2019-01-14T10:55:16.885Z,7.40
2019-01-14T11:00:21.247Z,7.17
2019-01-14T11:05:23.113Z,6.60
2019-01-14T11:10:20.251Z,6.77
2019-01-14T11:15:19.790Z,7.20
2019-01-14T11:20:26.700Z,6.50
2019-01-14T11:25:24.483Z,6.47
2019-01-14T11:30:28.863Z,6.97
2019-01-14T11:35:25.767Z,7.60
2019-01-14T11:40:26.769Z,6.23
2019-01-14T11:45:23.671Z,7.23
2019-01-14T11:50:20.637Z,5.90
2019-01-14T11:55:17.530Z,6.37
2019-01-14T12:00:23.766Z,6.90
2019-01-14T12:05:21.187Z,7.57
2019-01-14T12:10:18.221Z,6.83
2019-01-14T12:15:22.045Z,8.23
2019-01-14T12:20:20.083Z,7.23
2019-01-14T12:25:17.218Z,9.13
2019-01-14T12:30:36.444Z,8.30
2019-01-14T12:35:33.367Z,8.37
2019-01-14T12:40:30.356Z,8.37
2019-01-14T12:45:27.614Z,8.53
2019-01-14T12:50:24.861Z,8.27
2019-01-14T12:55:21.764Z,8.40
2019-01-14T13:00:27.311Z,7.73
2019-01-14T13:05:26.315Z,8.60
2019-01-14T13:10:23.258Z,9.10
2019-01-14T13:15:25.417Z,7.33
2019-01-14T13:20:22.655Z,8.83
2019-01-14T13:25:19.661Z,8.30
2019-01-14T13:30:24.042Z,9.10
2019-01-14T13:35:20.945Z,9.60
2019-01-14T13:40:17.941Z,7.23
2019-01-14T13:45:18.646Z,7.73
2019-01-14T13:50:24.400Z,9.47
2019-01-14T13:55:21.413Z,6.50
2019-01-14T14:00:23.714Z,5.63
2019-01-14T14:05:20.742Z,5.67
2019-01-14T14:10:24.092Z,7.00
2019-01-14T14:15:21.493Z,6.70
2019-01-14T14:20:18.961Z,6.57
2019-01-14T14:25:16.093Z,7.07
2019-01-14T14:30:29.287Z,8.33
2019-01-14T14:35:26.377Z,9.67
2019-01-14T14:40:23.611Z,8.27
2019-01-14T14:45:22.510Z,11.13
2019-01-14T14:50:20.379Z,8.93
2019-01-14T14:55:17.604Z,8.40
2019-01-14T15:00:17.921Z,9.30
2019-01-14T15:05:15.371Z,10.47
2019-01-14T15:10:15.780Z,10.97
2019-01-14T15:15:16.540Z,10.87
2019-01-14T15:20:16.398Z,10.67
2019-01-14T15:25:13.527Z,10.20
2019-01-14T15:30:18.311Z,11.43
2019-01-14T15:35:16.560Z,10.83
2019-01-14T15:40:16.858Z,10.20
2019-01-14T15:45:16.765Z,10.37
2019-01-14T15:50:13.733Z,12.30
2019-01-14T15:55:16.264Z,11.07
2019-01-14T16:00:17.233Z,12.13
2019-01-14T16:05:16.445Z,12.40
2019-01-14T16:10:16.709Z,11.60
2019-01-14T16:15:13.878Z,10.83
2019-01-14T16:20:14.732Z,11.80
2019-01-14T16:25:11.746Z,11.50
2019-01-14T16:30:24.367Z,10.93
2019-01-14T16:35:21.536Z,11.43
2019-01-14T16:40:18.566Z,13.53
2019-01-14T16:45:19.552Z,12.73
2019-01-14T16:50:17.124Z,11.50
2019-01-14T16:55:15.869Z,11.43
2019-01-14T17:00:16.448Z,11.07
2019-01-14T17:05:14.470Z,10.23
2019-01-14T17:10:14.116Z,10.50
2019-01-14T17:15:11.331Z,12.40
2019-01-14T17:20:19.326Z,12.93
2019-01-14T17:25:16.373Z,11.00
2019-01-14T17:30:16.515Z,11.57
2019-01-14T17:35:14.271Z,11.43
2019-01-14T17:40:15.634Z,11.53
2019-01-14T17:45:12.896Z,10.60
2019-01-14T17:50:13.502Z,12.10
2019-01-14T17:55:10.582Z,11.97
2019-01-14T18:00:19.393Z,13.50
2019-01-14T18:05:16.395Z,12.47
2019-01-14T18:10:18.972Z,14.40
2019-01-14T18:15:16.197Z,15.57
2019-01-14T18:20:15.971Z,11.67
2019-01-14T18:25:14.150Z,13.00
2019-01-14T18:30:17.936Z,11.13
2019-01-14T18:35:16.972Z,10.57
2019-01-14T18:40:16.014Z,10.97
2019-01-14T18:45:15.620Z,10.47
2019-01-14T18:50:15.979Z,10.57
2019-01-14T18:55:13.144Z,10.50
2019-01-14T19:00:16.918Z,9.67
2019-01-14T19:05:14.006Z,10.60
2019-01-14T19:10:12.673Z,10.30
2019-01-14T19:15:16.746Z,12.07
2019-01-14T19:20:23.273Z,12.63
2019-01-14T19:25:20.371Z,13.47
2019-01-14T19:30:21.269Z,11.70
2019-01-14T19:35:18.568Z,12.13
2019-01-14T19:40:18.076Z,12.30
2019-01-14T19:45:18.457Z,12.53
2019-01-14T19:50:18.722Z,11.53
2019-01-14T19:55:15.791Z,12.10
2019-01-14T20:00:25.289Z,12.37
2019-01-14T20:05:22.212Z,11.53
2019-01-14T20:10:19.221Z,13.07
2019-01-14T20:15:19.805Z,12.90
2019-01-14T20:20:17.002Z,13.70
2019-01-14T20:25:14.259Z,13.37
2019-01-14T20:30:19.108Z,13.97
2019-01-14T20:35:16.685Z,13.93
2019-01-14T20:40:15.389Z,13.07
2019-01-14T20:45:15.118Z,13.70
2019-01-14T20:50:15.341Z,13.47
2019-01-14T20:55:12.666Z,13.93
2019-01-14T21:00:17.115Z,15.63
2019-01-14T21:05:14.375Z,12.77
2019-01-14T21:10:14.511Z,13.73
2019-01-14T21:15:11.669Z,14.47
2019-01-14T21:20:22.947Z,14.07
2019-01-14T21:25:21.842Z,14.93
2019-01-14T21:30:21.911Z,15.33
2019-01-14T21:35:18.928Z,15.23
2019-01-14T21:40:16.078Z,15.67
2019-01-14T21:45:14.220Z,15.53
2019-01-14T21:50:16.924Z,16.10
2019-01-14T21:55:19.831Z,13.63
2019-01-14T22:00:21.729Z,14.30
2019-01-14T22:05:18.958Z,13.37
2019-01-14T22:10:22.950Z,14.27
2019-01-14T22:15:19.848Z,13.17
2019-01-14T22:20:23.358Z,13.53
2019-01-14T22:25:20.360Z,13.50
2019-01-14T22:30:26.906Z,13.00
2019-01-14T22:35:23.801Z,12.50
2019-01-14T22:40:21.652Z,12.80
2019-01-14T22:45:18.569Z,15.23
2019-01-14T22:50:17.721Z,13.67
2019-01-14T22:55:14.643Z,12.87
2019-01-14T23:00:55.877Z,13.63
2019-01-14T23:05:52.791Z,14.80
2019-01-14T23:10:50.903Z,14.20
2019-01-14T23:15:47.913Z,13.47
2019-01-14T23:20:44.867Z,15.00
2019-01-14T23:25:41.767Z,13.73
2019-01-14T23:30:39.196Z,13.87
2019-01-14T23:35:36.141Z,13.53
2019-01-14T23:40:33.549Z,12.97
2019-01-14T23:45:30.474Z,12.43
2019-01-14T23:50:28.062Z,12.83
2019-01-14T23:55:24.962Z,13.47
